sensor_id;sensor_type;location;lat;lon;timestamp;P1;durP1;ratioP1;P2;durP2;ratioP2
27275;SDS011;14772;47.398;8.080;2022-11-15T00:00:58;17.97;;;8.33;;
27275;SDS011;14772;47.398;8.080;2022-11-15T00:05:55;18.57;;;8.47;;
27275;SDS011;14772;47.398;8.080;2022-11-15T00:10:58;19.63;;;7.93;;
27275;SDS011;14772;47.398;8.080;2022-11-15T00:15:57;20.33;;;9.13;;
27275;SDS011;14772;47.398;8.080;2022-11-15T00:21:02;25.90;;;9.77;;
27275;SDS011;14772;47.398;8.080;2022-11-15T00:26:15;18.33;;;9.03;;
27275;SDS011;14772;47.398;8.080;2022-11-15T00:31:19;18.27;;;9.33;;
27275;SDS011;14772;47.398;8.080;2022-11-15T00:36:21;21.33;;;10.00;;
27275;SDS011;14772;47.398;8.080;2022-11-15T00:41:32;19.70;;;9.83;;
27275;SDS011;14772;47.398;8.080;2022-11-15T00:46:42;22.77;;;9.77;;
27275;SDS011;14772;47.398;8.080;2022-11-15T00:51:45;19.17;;;9.53;;
27275;SDS011;14772;47.398;8.080;2022-11-15T00:57:11;18.67;;;9.50;;
27275;SDS011;14772;47.398;8.080;2022-11-15T01:07:42;17.27;;;9.10;;
27275;SDS011;14772;47.398;8.080;2022-11-15T01:18:22;15.43;;;7.40;;
27275;SDS011;14772;47.398;8.080;2022-11-15T01:34:24;16.63;;;8.10;;
27275;SDS011;14772;47.398;8.080;2022-11-15T01:39:38;16.47;;;8.00;;
27275;SDS011;14772;47.398;8.080;2022-11-15T01:44:42;19.10;;;8.30;;
27275;SDS011;14772;47.398;8.080;2022-11-15T01:49:54;17.43;;;8.20;;
27275;SDS011;14772;47.398;8.080;2022-11-15T01:55:25;20.63;;;8.70;;
27275;SDS011;14772;47.398;8.080;2022-11-15T02:00:35;18.27;;;8.73;;
27275;SDS011;14772;47.398;8.080;2022-11-15T02:05:53;23.07;;;8.90;;
27275;SDS011;14772;47.398;8.080;2022-11-15T02:10:54;20.33;;;9.53;;
27275;SDS011;14772;47.398;8.080;2022-11-15T02:16:03;20.03;;;9.77;;
27275;SDS011;14772;47.398;8.080;2022-11-15T02:21:26;19.50;;;9.50;;
27275;SDS011;14772;47.398;8.080;2022-11-15T02:26:49;17.33;;;8.90;;
27275;SDS011;14772;47.398;8.080;2022-11-15T02:31:53;16.53;;;8.60;;
27275;SDS011;14772;47.398;8.080;2022-11-15T02:37:07;16.10;;;8.17;;
27275;SDS011;14772;47.398;8.080;2022-11-15T02:42:13;17.57;;;7.80;;
27275;SDS011;14772;47.398;8.080;2022-11-15T02:47:22;16.70;;;7.87;;
27275;SDS011;14772;47.398;8.080;2022-11-15T02:57:57;18.13;;;8.00;;
27275;SDS011;14772;47.398;8.080;2022-11-15T03:03:13;17.67;;;8.67;;
27275;SDS011;14772;47.398;8.080;2022-11-15T03:08:17;19.83;;;9.33;;
27275;SDS011;14772;47.398;8.080;2022-11-15T03:19:02;19.70;;;9.60;;
27275;SDS011;14772;47.398;8.080;2022-11-15T03:24:22;19.50;;;9.17;;
27275;SDS011;14772;47.398;8.080;2022-11-15T03:29:34;17.80;;;9.23;;
27275;SDS011;14772;47.398;8.080;2022-11-15T03:34:52;19.87;;;9.50;;
27275;SDS011;14772;47.398;8.080;2022-11-15T03:45:29;20.33;;;10.00;;
27275;SDS011;14772;47.398;8.080;2022-11-15T03:50:44;17.77;;;8.70;;
27275;SDS011;14772;47.398;8.080;2022-11-15T03:55:56;18.40;;;8.50;;
27275;SDS011;14772;47.398;8.080;2022-11-15T04:01:09;18.70;;;8.70;;
27275;SDS011;14772;47.398;8.080;2022-11-15T04:06:10;18.93;;;8.70;;
27275;SDS011;14772;47.398;8.080;2022-11-15T04:11:08;17.57;;;8.73;;
27275;SDS011;14772;47.398;8.080;2022-11-15T04:16:06;18.60;;;9.43;;
27275;SDS011;14772;47.398;8.080;2022-11-15T04:21:03;18.53;;;8.50;;
27275;SDS011;14772;47.398;8.080;2022-11-15T04:26:02;17.03;;;8.60;;
27275;SDS011;14772;47.398;8.080;2022-11-15T04:31:03;17.63;;;8.50;;
27275;SDS011;14772;47.398;8.080;2022-11-15T04:36:01;20.97;;;9.53;;
27275;SDS011;14772;47.398;8.080;2022-11-15T04:40:59;19.07;;;9.13;;
27275;SDS011;14772;47.398;8.080;2022-11-15T04:45:57;21.37;;;9.53;;
27275;SDS011;14772;47.398;8.080;2022-11-15T04:50:55;19.27;;;8.70;;
27275;SDS011;14772;47.398;8.080;2022-11-15T04:55:52;18.53;;;8.67;;
27275;SDS011;14772;47.398;8.080;2022-11-15T05:00:49;21.17;;;8.87;;
27275;SDS011;14772;47.398;8.080;2022-11-15T05:05:47;17.80;;;8.70;;
27275;SDS011;14772;47.398;8.080;2022-11-15T05:10:45;21.10;;;9.17;;
27275;SDS011;14772;47.398;8.080;2022-11-15T05:15:43;16.70;;;8.60;;
27275;SDS011;14772;47.398;8.080;2022-11-15T05:20:41;18.20;;;8.67;;
27275;SDS011;14772;47.398;8.080;2022-11-15T05:25:39;18.57;;;9.00;;
27275;SDS011;14772;47.398;8.080;2022-11-15T05:30:37;18.13;;;8.67;;
27275;SDS011;14772;47.398;8.080;2022-11-15T05:35:35;17.00;;;8.53;;
27275;SDS011;14772;47.398;8.080;2022-11-15T05:40:36;18.70;;;8.67;;
27275;SDS011;14772;47.398;8.080;2022-11-15T05:45:33;20.40;;;9.90;;
27275;SDS011;14772;47.398;8.080;2022-11-15T05:50:32;18.07;;;9.43;;
27275;SDS011;14772;47.398;8.080;2022-11-15T05:55:32;20.03;;;9.73;;
27275;SDS011;14772;47.398;8.080;2022-11-15T06:00:30;19.07;;;10.10;;
27275;SDS011;14772;47.398;8.080;2022-11-15T06:05:27;19.40;;;10.20;;
27275;SDS011;14772;47.398;8.080;2022-11-15T06:10:25;18.27;;;9.37;;
27275;SDS011;14772;47.398;8.080;2022-11-15T06:15:22;22.33;;;9.83;;
27275;SDS011;14772;47.398;8.080;2022-11-15T06:20:20;20.60;;;10.10;;
27275;SDS011;14772;47.398;8.080;2022-11-15T06:25:17;20.77;;;9.33;;
27275;SDS011;14772;47.398;8.080;2022-11-15T06:30:14;20.43;;;9.03;;
27275;SDS011;14772;47.398;8.080;2022-11-15T06:35:11;18.40;;;8.57;;
27275;SDS011;14772;47.398;8.080;2022-11-15T06:40:10;19.10;;;9.23;;
27275;SDS011;14772;47.398;8.080;2022-11-15T06:45:11;25.27;;;9.97;;
27275;SDS011;14772;47.398;8.080;2022-11-15T06:50:10;17.60;;;8.73;;
27275;SDS011;14772;47.398;8.080;2022-11-15T07:12:03;15.50;;;7.80;;
27275;SDS011;14772;47.398;8.080;2022-11-15T07:17:17;15.50;;;7.63;;
27275;SDS011;14772;47.398;8.080;2022-11-15T07:45:13;15.30;;;7.67;;
27275;SDS011;14772;47.398;8.080;2022-11-15T07:50:54;18.53;;;10.03;;
27275;SDS011;14772;47.398;8.080;2022-11-15T08:01:41;17.43;;;8.60;;
27275;SDS011;14772;47.398;8.080;2022-11-15T08:12:55;18.63;;;9.70;;
27275;SDS011;14772;47.398;8.080;2022-11-15T08:18:20;21.60;;;11.00;;
27275;SDS011;14772;47.398;8.080;2022-11-15T08:23:47;21.03;;;11.23;;
27275;SDS011;14772;47.398;8.080;2022-11-15T08:29:22;22.73;;;12.20;;
27275;SDS011;14772;47.398;8.080;2022-11-15T08:40:28;23.63;;;12.93;;
27275;SDS011;14772;47.398;8.080;2022-11-15T08:57:54;23.27;;;12.93;;
27275;SDS011;14772;47.398;8.080;2022-11-15T09:09:15;25.07;;;12.97;;
27275;SDS011;14772;47.398;8.080;2022-11-15T09:14:32;21.37;;;11.60;;
27275;SDS011;14772;47.398;8.080;2022-11-15T09:20:03;21.50;;;11.53;;
27275;SDS011;14772;47.398;8.080;2022-11-15T09:54:37;19.27;;;10.57;;
27275;SDS011;14772;47.398;8.080;2022-11-15T09:59:39;18.57;;;10.07;;
27275;SDS011;14772;47.398;8.080;2022-11-15T10:04:44;19.63;;;11.10;;
27275;SDS011;14772;47.398;8.080;2022-11-15T10:09:44;20.93;;;10.23;;
27275;SDS011;14772;47.398;8.080;2022-11-15T10:14:45;19.67;;;9.90;;
27275;SDS011;14772;47.398;8.080;2022-11-15T10:19:59;16.90;;;9.60;;
27275;SDS011;14772;47.398;8.080;2022-11-15T10:25:32;17.63;;;9.20;;
27275;SDS011;14772;47.398;8.080;2022-11-15T11:15:38;17.57;;;8.83;;
27275;SDS011;14772;47.398;8.080;2022-11-15T11:21:07;16.20;;;8.17;;
27275;SDS011;14772;47.398;8.080;2022-11-15T11:26:33;15.70;;;8.20;;
27275;SDS011;14772;47.398;8.080;2022-11-15T11:31:37;16.37;;;7.93;;
27275;SDS011;14772;47.398;8.080;2022-11-15T11:36:39;17.90;;;8.83;;
27275;SDS011;14772;47.398;8.080;2022-11-15T11:41:52;17.33;;;8.37;;
27275;SDS011;14772;47.398;8.080;2022-11-15T11:46:56;17.47;;;8.50;;
27275;SDS011;14772;47.398;8.080;2022-11-15T11:51:58;15.20;;;8.03;;
27275;SDS011;14772;47.398;8.080;2022-11-15T11:56:58;16.87;;;8.70;;
27275;SDS011;14772;47.398;8.080;2022-11-15T12:07:42;16.67;;;8.60;;
27275;SDS011;14772;47.398;8.080;2022-11-15T12:12:44;17.50;;;9.03;;
27275;SDS011;14772;47.398;8.080;2022-11-15T12:17:43;16.20;;;9.17;;
27275;SDS011;14772;47.398;8.080;2022-11-15T12:22:43;17.23;;;9.33;;
27275;SDS011;14772;47.398;8.080;2022-11-15T12:27:47;17.70;;;9.10;;
27275;SDS011;14772;47.398;8.080;2022-11-15T12:32:52;17.83;;;9.67;;
27275;SDS011;14772;47.398;8.080;2022-11-15T12:37:55;17.13;;;9.40;;
27275;SDS011;14772;47.398;8.080;2022-11-15T12:42:58;18.13;;;9.53;;
27275;SDS011;14772;47.398;8.080;2022-11-15T12:53:57;18.57;;;9.83;;
27275;SDS011;14772;47.398;8.080;2022-11-15T12:58:59;20.30;;;9.83;;
27275;SDS011;14772;47.398;8.080;2022-11-15T13:04:14;19.30;;;10.37;;
27275;SDS011;14772;47.398;8.080;2022-11-15T15:39:42;20.97;;;12.17;;
27275;SDS011;14772;47.398;8.080;2022-11-15T17:00:12;23.30;;;12.30;;
27275;SDS011;14772;47.398;8.080;2022-11-15T17:05:24;21.00;;;12.60;;
27275;SDS011;14772;47.398;8.080;2022-11-15T17:10:31;23.40;;;12.90;;
27275;SDS011;14772;47.398;8.080;2022-11-15T17:15:30;20.93;;;12.40;;
27275;SDS011;14772;47.398;8.080;2022-11-15T17:20:28;24.30;;;12.17;;
27275;SDS011;14772;47.398;8.080;2022-11-15T17:41:46;21.50;;;12.23;;
27275;SDS011;14772;47.398;8.080;2022-11-15T17:47:03;23.60;;;12.50;;
27275;SDS011;14772;47.398;8.080;2022-11-15T17:52:02;23.67;;;13.60;;
27275;SDS011;14772;47.398;8.080;2022-11-15T17:56:59;29.53;;;17.73;;
27275;SDS011;14772;47.398;8.080;2022-11-15T18:01:57;27.50;;;15.70;;
27275;SDS011;14772;47.398;8.080;2022-11-15T18:06:55;25.07;;;15.47;;
27275;SDS011;14772;47.398;8.080;2022-11-15T18:11:54;23.80;;;13.33;;
27275;SDS011;14772;47.398;8.080;2022-11-15T18:16:53;21.73;;;12.87;;
27275;SDS011;14772;47.398;8.080;2022-11-15T18:28:06;22.37;;;13.53;;
27275;SDS011;14772;47.398;8.080;2022-11-15T18:33:17;23.23;;;13.03;;
27275;SDS011;14772;47.398;8.080;2022-11-15T18:38:51;23.10;;;13.30;;
27275;SDS011;14772;47.398;8.080;2022-11-15T18:43:51;24.03;;;13.90;;
27275;SDS011;14772;47.398;8.080;2022-11-15T18:48:50;25.70;;;15.30;;
27275;SDS011;14772;47.398;8.080;2022-11-15T18:53:50;26.13;;;15.93;;
27275;SDS011;14772;47.398;8.080;2022-11-15T18:58:50;27.20;;;15.00;;
27275;SDS011;14772;47.398;8.080;2022-11-15T19:03:50;23.87;;;13.17;;
27275;SDS011;14772;47.398;8.080;2022-11-15T19:08:50;24.23;;;13.73;;
27275;SDS011;14772;47.398;8.080;2022-11-15T19:13:53;25.10;;;15.33;;
27275;SDS011;14772;47.398;8.080;2022-11-15T19:18:53;26.23;;;14.30;;
27275;SDS011;14772;47.398;8.080;2022-11-15T19:23:52;23.23;;;14.20;;
27275;SDS011;14772;47.398;8.080;2022-11-15T19:28:50;25.10;;;14.87;;
27275;SDS011;14772;47.398;8.080;2022-11-15T19:33:51;27.97;;;16.27;;
27275;SDS011;14772;47.398;8.080;2022-11-15T19:38:50;25.67;;;14.70;;
27275;SDS011;14772;47.398;8.080;2022-11-15T19:43:49;24.03;;;13.70;;
27275;SDS011;14772;47.398;8.080;2022-11-15T19:48:48;20.63;;;12.37;;
27275;SDS011;14772;47.398;8.080;2022-11-15T19:53:47;26.37;;;13.73;;
27275;SDS011;14772;47.398;8.080;2022-11-15T19:58:50;22.97;;;13.47;;
27275;SDS011;14772;47.398;8.080;2022-11-15T20:03:50;22.63;;;13.93;;
27275;SDS011;14772;47.398;8.080;2022-11-15T20:08:50;24.00;;;13.70;;
27275;SDS011;14772;47.398;8.080;2022-11-15T20:13:49;22.87;;;13.73;;
27275;SDS011;14772;47.398;8.080;2022-11-15T20:18:50;23.13;;;13.00;;
27275;SDS011;14772;47.398;8.080;2022-11-15T20:23:49;22.53;;;12.83;;
27275;SDS011;14772;47.398;8.080;2022-11-15T20:29:30;24.53;;;14.33;;
27275;SDS011;14772;47.398;8.080;2022-11-15T21:33:50;23.80;;;13.23;;
27275;SDS011;14772;47.398;8.080;2022-11-15T23:55:47;22.87;;;12.67;;
